Mustafa Dayi — TCZF2 — position and weather

sailwx.info

Track history (hours):
 
Tides and Currents Weather Stations Pressure Air Temp Water Temp Dewpoint Dewpoint Depression Visibility Wind Speed Wind Dir Waves Ship Positions

Mustafa Dayi

Last reported at 2014-Jul-27 20:33 UTC. Time now 2014-Jul-29 04:42 UTC.
Position N 39°02' E 025°54'.

Length 183 m; draft 8.6 m.

Type: Ship (hazmat cat A). MMSI: 271042433.

Date/timePositionNaut miles runAvg speedWind from/ knotsBaromVisibWave heightAir tempDewpointWater temp
2014-Jul-27 20:33N 39°02' E 025°54'3316.0
2014-Jul-27 18:31N 39°34' E 025°47'1917.2
2014-Jul-27 17:26N 39°53' E 025°52'1517.1
2014-Jul-27 16:33N 40°01' E 026°08'137 3.9
2014-Jul-26 05:20N 40°25' E 029°05'17 7.8
2014-Jul-26 03:08N 40°37' E 028°49'914.3
2014-Jul-26 02:32N 40°41' E 028°58'1414.2
2014-Jul-26 01:33N 40°44' E 029°16'1111.0
2014-Jul-26 00:33N 40°45' E 029°31'0 0.0
2014-Jul-25 09:32N 40°45' E 029°31'10 9.9
2014-Jul-25 08:33N 40°44' E 029°18'1414.2
2014-Jul-25 07:34N 40°44' E 028°60'1313.1
2014-Jul-25 06:33N 40°47' E 028°43'11 0.6
2014-Jul-24 12:11N 40°58' E 028°41'2 2.7
2014-Jul-24 11:32N 40°56' E 028°41'10112.2
2014-Jul-24 03:12N 40°19' E 026°36'3812.0
2014-Jul-24 00:04N 39°56' E 025°57'912.8
2014-Jul-23 23:21N 39°48' E 025°51'1214.3
2014-Jul-23 22:31N 39°36' E 025°48'12814.3
2014-Jul-23 13:33N 37°29' E 025°54'1414.5
2014-Jul-23 12:33N 37°20' E 026°09'1414.4
2014-Jul-23 11:33N 37°11' E 026°23'4213.5
2014-Jul-23 08:26N 36°33' E 026°46'1213.8
2014-Jul-23 07:33N 36°22' E 026°52'1414.3
2014-Jul-23 06:33N 36°12' E 027°05'1414.2
2014-Jul-23 05:33N 36°02' E 027°17'1413.6
2014-Jul-23 04:33N 35°51' E 027°28'8414.1
2014-Jul-22 22:33N 34°34' E 028°08'1414.0
2014-Jul-22 21:33N 34°21' E 028°15'1414.0
2014-Jul-22 20:33N 34°08' E 028°22'1414.0
2014-Jul-22 19:33N 33°55' E 028°29'1414.1
2014-Jul-22 18:33N 33°43' E 028°36'1414.0
2014-Jul-22 17:33N 33°29' E 028°41'1914.0
2014-Jul-22 16:11N 33°11' E 028°49'913.9
2014-Jul-22 15:33N 33°03' E 028°53'3313.8
2014-Jul-22 13:08N 32°32' E 029°07'1214.1
2014-Jul-22 12:16N 32°21' E 029°13'  
2014-Jul-18 21:31N 35°56' E 032°56'1914.1
2014-Jul-18 20:09N 35°55' E 032°32'28713.8
2014-Jul-17 23:23N 36°12' E 026°38'  
Track history (hours):
 
Tides and Currents Weather Stations Pressure Air Temp Water Temp Dewpoint Dewpoint Depression Visibility Wind Speed Wind Dir Waves Ship Positions

Mustafa Dayi

Last reported at 2014-Jul-27 20:33 UTC. Time now 2014-Jul-29 04:42 UTC.
Position N 39°02' E 025°54'.

Length 183 m; draft 8.6 m.

Type: Ship (hazmat cat A). MMSI: 271042433.

Date/timePositionNaut miles runAvg speedWind from/ knotsBaromVisibWave heightAir tempDewpointWater temp
2014-Jul-27 20:33N 39°02' E 025°54'3316.0
2014-Jul-27 18:31N 39°34' E 025°47'1917.2
2014-Jul-27 17:26N 39°53' E 025°52'1517.1
2014-Jul-27 16:33N 40°01' E 026°08'137 3.9
2014-Jul-26 05:20N 40°25' E 029°05'17 7.8
2014-Jul-26 03:08N 40°37' E 028°49'914.3
2014-Jul-26 02:32N 40°41' E 028°58'1414.2
2014-Jul-26 01:33N 40°44' E 029°16'1111.0
2014-Jul-26 00:33N 40°45' E 029°31'0 0.0
2014-Jul-25 09:32N 40°45' E 029°31'10 9.9
2014-Jul-25 08:33N 40°44' E 029°18'1414.2
2014-Jul-25 07:34N 40°44' E 028°60'1313.1
2014-Jul-25 06:33N 40°47' E 028°43'11 0.6
2014-Jul-24 12:11N 40°58' E 028°41'2 2.7
2014-Jul-24 11:32N 40°56' E 028°41'10112.2
2014-Jul-24 03:12N 40°19' E 026°36'3812.0
2014-Jul-24 00:04N 39°56' E 025°57'912.8
2014-Jul-23 23:21N 39°48' E 025°51'1214.3
2014-Jul-23 22:31N 39°36' E 025°48'12814.3
2014-Jul-23 13:33N 37°29' E 025°54'1414.5
2014-Jul-23 12:33N 37°20' E 026°09'1414.4
2014-Jul-23 11:33N 37°11' E 026°23'4213.5
2014-Jul-23 08:26N 36°33' E 026°46'1213.8
2014-Jul-23 07:33N 36°22' E 026°52'1414.3
2014-Jul-23 06:33N 36°12' E 027°05'1414.2
2014-Jul-23 05:33N 36°02' E 027°17'1413.6
2014-Jul-23 04:33N 35°51' E 027°28'8414.1
2014-Jul-22 22:33N 34°34' E 028°08'1414.0
2014-Jul-22 21:33N 34°21' E 028°15'1414.0
2014-Jul-22 20:33N 34°08' E 028°22'1414.0
2014-Jul-22 19:33N 33°55' E 028°29'1414.1
2014-Jul-22 18:33N 33°43' E 028°36'1414.0
2014-Jul-22 17:33N 33°29' E 028°41'1914.0
2014-Jul-22 16:11N 33°11' E 028°49'913.9
2014-Jul-22 15:33N 33°03' E 028°53'3313.8
2014-Jul-22 13:08N 32°32' E 029°07'1214.1
2014-Jul-22 12:16N 32°21' E 029°13'  
2014-Jul-18 21:31N 35°56' E 032°56'1914.1
2014-Jul-18 20:09N 35°55' E 032°32'28713.8
2014-Jul-17 23:23N 36°12' E 026°38'  

Dump ship's entire track history